Time;durP1;ratioP1;P1;durP2;ratioP2;P2;SDS_P1;SDS_P2;PMS_P1;PMS_P2;Temp;Humidity;BMP_temperature;BMP_pressure;BME280_temperature;BME280_humidity;BME280_pressure;Samples;Min_cycle;Max_cycle;Signal;HPM_P1;HPM_P2
2023/05/05 00:01:32;;;;;;;6.70;1.90;;;;;;;15.10;51.63;99746.77;79529;1297;3013137;-63
2023/05/05 00:03:59;;;;;;;6.20;1.50;;;;;;;15.11;51.56;99749.17;79418;1295;3011498;-65
2023/05/05 00:06:30;;;;;;;5.20;1.50;;;;;;;15.04;51.78;99743.49;78098;1297;3052575;-62
2023/05/05 00:08:57;;;;;;;5.80;1.70;;;;;;;15.01;52.11;99741.66;79439;1294;3013413;-62
2023/05/05 00:11:26;;;;;;;7.10;2.20;;;;;;;14.95;52.26;99739.39;78975;1295;3012816;-64
2023/05/05 00:13:52;;;;;;;6.40;3.00;;;;;;;14.92;51.98;99741.02;79565;1295;3011908;-66
2023/05/05 00:16:19;;;;;;;6.20;2.70;;;;;;;14.96;51.48;99741.64;79450;1297;3011601;-64
2023/05/05 00:18:47;;;;;;;7.80;3.30;;;;;;;14.93;51.74;99744.89;78383;1297;3026597;-64
2023/05/05 00:21:14;;;;;;;6.50;2.70;;;;;;;14.93;51.43;99743.42;79476;1297;3013500;-64
2023/05/05 00:23:41;;;;;;;7.20;2.60;;;;;;;14.88;52.01;99748.44;79513;1295;3011375;-65
2023/05/05 00:26:08;;;;;;;7.00;2.60;;;;;;;14.81;51.86;99749.44;78326;1294;3052143;-64
2023/05/05 00:28:35;;;;;;;7.50;2.90;;;;;;;14.89;51.42;99748.98;79462;1295;3013669;-66
2023/05/05 00:31:03;;;;;;;5.70;2.60;;;;;;;14.89;51.46;99753.59;79553;1297;3011545;-61
2023/05/05 00:33:31;;;;;;;5.40;1.90;;;;;;;14.86;51.31;99752.84;78407;1295;3050341;-63
2023/05/05 00:35:57;;;;;;;6.60;2.50;;;;;;;14.81;51.35;99752.23;79480;1301;3013714;-61
2023/05/05 00:38:24;;;;;;;8.90;2.90;;;;;;;14.82;51.62;99752.02;79538;1296;3011751;-60
2023/05/05 00:40:52;;;;;;;6.40;2.90;;;;;;;14.75;51.80;99752.56;78163;1300;3027300;-63
2023/05/05 00:43:18;;;;;;;5.70;2.50;;;;;;;14.71;52.07;99743.11;79591;1294;3018687;-65
2023/05/05 00:45:46;;;;;;;7.90;2.60;;;;;;;14.69;52.05;99745.76;79468;1297;3011930;-66
2023/05/05 00:48:15;;;;;;;6.60;2.30;;;;;;;14.59;52.32;99749.10;78331;1297;3050589;-62
2023/05/05 00:50:43;;;;;;;7.00;2.30;;;;;;;14.58;52.29;99750.00;79488;1297;3012364;-66
2023/05/05 00:53:10;;;;;;;3.80;1.90;;;;;;;14.62;52.31;99750.64;79407;1296;3011499;-64
2023/05/05 00:55:39;;;;;;;5.00;2.20;;;;;;;14.60;52.49;99750.38;78172;1298;3050918;-64
2023/05/05 00:58:05;;;;;;;6.20;2.70;;;;;;;14.55;52.50;99741.23;79458;1295;3013923;-61
2023/05/05 01:00:33;;;;;;;4.30;2.40;;;;;;;14.47;52.74;99742.04;79591;1294;3011827;-63
2023/05/05 01:03:01;;;;;;;5.70;2.70;;;;;;;14.46;52.58;99735.94;78418;1297;3049563;-64
2023/05/05 01:05:35;;;;;;;3.70;2.50;;;;;;;14.41;52.69;99731.34;79509;1297;3013247;-63
2023/05/05 01:08:06;;;;;;;9.00;4.00;;;;;;;14.38;52.35;99732.45;78358;1294;3069223;-63
2023/05/05 01:10:44;;;;;;;8.80;4.00;;;;;;;14.41;52.16;99731.48;79482;1296;3011932;-62
2023/05/05 01:13:31;;;;;;;10.40;6.20;;;;;;;14.40;51.67;99731.95;78295;1297;3057820;-65
2023/05/05 01:16:13;;;;;;;15.90;8.40;;;;;;;14.38;51.74;99727.67;78326;1297;3049769;-63
2023/05/05 01:18:50;;;;;;;26.40;13.10;;;;;;;14.35;51.27;99729.11;78082;1300;3053652;-61
2023/05/05 01:21:26;;;;;;;17.10;9.10;;;;;;;14.38;50.39;99719.41;78309;1297;3051905;-63
2023/05/05 01:24:00;;;;;;;13.30;5.90;;;;;;;14.35;50.01;99721.58;78226;1300;3052054;-63
2023/05/05 01:27:04;;;;;;;5.50;3.30;;;;;;;14.38;49.82;99726.25;79525;1297;3011605;-67
2023/05/05 01:29:52;;;;;;;8.70;3.60;;;;;;;14.43;49.75;99727.66;78231;1295;3069243;-67
2023/05/05 01:32:21;;;;;;;5.30;2.70;;;;;;;14.42;50.09;99733.71;78345;1308;3051928;-65
2023/05/05 01:34:54;;;;;;;8.40;2.20;;;;;;;14.43;49.65;99731.90;79481;1295;3011636;-61
2023/05/05 01:37:26;;;;;;;4.10;1.70;;;;;;;14.38;49.25;99722.91;78223;1297;3049371;-66
2023/05/05 01:39:56;;;;;;;7.60;1.80;;;;;;;14.40;48.65;99725.61;79457;1294;3011975;-63
2023/05/05 01:42:24;;;;;;;6.30;1.70;;;;;;;14.37;47.99;99721.37;78345;1298;3050602;-63
2023/05/05 01:44:53;;;;;;;9.00;2.20;;;;;;;14.44;47.42;99722.66;79477;1293;3012133;-63
2023/05/05 01:47:20;;;;;;;6.20;2.20;;;;;;;14.46;47.02;99725.00;79446;1295;3011721;-63
2023/05/05 01:49:48;;;;;;;9.40;2.60;;;;;;;14.47;46.42;99717.68;78252;1294;3051533;-61
2023/05/05 01:52:15;;;;;;;6.50;2.00;;;;;;;14.48;45.63;99708.14;79411;1298;3013704;-63
2023/05/05 01:54:43;;;;;;;7.50;2.00;;;;;;;14.54;45.16;99707.34;79451;1297;3014139;-60
2023/05/05 01:57:11;;;;;;;3.30;1.40;;;;;;;14.59;44.97;99701.27;78257;1297;3050066;-64
2023/05/05 01:59:38;;;;;;;5.00;1.90;;;;;;;14.66;44.85;99693.29;79471;1300;3014296;-62
2023/05/05 02:02:07;;;;;;;4.30;1.60;;;;;;;14.69;44.52;99692.30;79465;1297;3011580;-63
2023/05/05 02:04:36;;;;;;;9.30;1.60;;;;;;;14.74;44.56;99686.47;78224;1295;3051608;-61
2023/05/05 02:07:02;;;;;;;2.30;1.30;;;;;;;14.78;44.92;99687.59;79551;1297;3012831;-64
2023/05/05 02:09:29;;;;;;;4.40;1.20;;;;;;;14.83;44.98;99686.02;79429;1298;3011773;-62
2023/05/05 02:11:57;;;;;;;3.40;1.30;;;;;;;14.89;44.83;99689.21;78156;1299;3049421;-63
2023/05/05 02:14:26;;;;;;;2.60;1.10;;;;;;;14.93;44.96;99684.17;79479;1300;3013643;-62
2023/05/05 02:16:52;;;;;;;3.30;1.10;;;;;;;14.98;45.14;99682.95;79480;1297;3012048;-64
2023/05/05 02:19:21;;;;;;;2.10;1.30;;;;;;;15.01;44.85;99682.91;78348;1297;3051664;-63
2023/05/05 02:21:48;;;;;;;7.30;1.40;;;;;;;15.06;44.93;99686.39;79543;1297;3011664;-62
2023/05/05 02:24:15;;;;;;;1.80;1.20;;;;;;;15.13;45.09;99683.88;79506;1297;3013320;-63
2023/05/05 02:26:44;;;;;;;4.10;1.90;;;;;;;15.16;44.70;99684.59;78329;1297;3049815;-61
2023/05/05 02:29:17;;;;;;;4.80;1.50;;;;;;;15.16;44.46;99688.98;79545;1301;3013288;-62
2023/05/05 02:31:47;;;;;;;2.90;1.40;;;;;;;15.16;44.42;99684.61;78288;1295;3068603;-61
2023/05/05 02:34:21;;;;;;;2.20;1.10;;;;;;;15.15;44.11;99685.89;79513;1302;3011587;-60
2023/05/05 02:36:50;;;;;;;2.80;1.20;;;;;;;15.22;44.48;99682.86;78194;1297;3055928;-59
2023/05/05 02:39:20;;;;;;;5.20;1.10;;;;;;;15.26;44.39;99682.36;79612;1294;3013273;-63
2023/05/05 02:41:48;;;;;;;3.10;1.10;;;;;;;15.30;44.45;99684.59;78283;1296;3053473;-66
2023/05/05 02:44:22;;;;;;;3.40;0.90;;;;;;;15.34;44.63;99684.23;79458;1298;3012076;-67
2023/05/05 02:46:50;;;;;;;2.70;1.00;;;;;;;15.37;44.38;99687.16;78313;1298;3051348;-61
2023/05/05 02:49:17;;;;;;;3.20;1.50;;;;;;;15.42;44.32;99688.21;79459;1298;3013582;-63
2023/05/05 02:51:44;;;;;;;3.50;1.40;;;;;;;15.46;44.28;99690.23;79511;1298;3013319;-59
2023/05/05 02:54:19;;;;;;;3.70;1.40;;;;;;;15.51;44.06;99687.92;78259;1297;3056511;-61
2023/05/05 02:56:47;;;;;;;4.50;1.50;;;;;;;15.52;43.91;99689.09;79462;1298;3013549;-69
2023/05/05 02:59:48;;;;;;;6.80;1.60;;;;;;;15.54;43.95;99686.05;79507;1298;3013296;-67
2023/05/05 03:02:26;;;;;;;2.60;1.40;;;;;;;15.61;44.08;99685.67;78212;1298;3053461;-63
2023/05/05 03:05:04;;;;;;;5.50;1.40;;;;;;;15.69;44.55;99683.65;78702;1298;3011608;-58
2023/05/05 03:07:37;;;;;;;2.50;1.30;;;;;;;15.77;44.71;99681.28;78203;1308;3053736;-63
2023/05/05 03:10:14;;;;;;;7.40;1.40;;;;;;;15.85;44.91;99684.56;79365;1297;3011785;-61
2023/05/05 03:12:45;;;;;;;4.10;1.20;;;;;;;15.89;45.12;99689.88;78181;1298;3051683;-62
2023/05/05 03:15:17;;;;;;;2.30;1.10;;;;;;;15.90;44.05;99698.29;80309;1295;3011604;-62
2023/05/05 03:17:45;;;;;;;2.10;1.10;;;;;;;15.92;43.74;99695.70;79111;1298;3049208;-65
2023/05/05 03:20:12;;;;;;;3.10;1.40;;;;;;;15.92;43.40;99692.65;79743;1298;3013090;-63
2023/05/05 03:22:40;;;;;;;2.10;1.30;;;;;;;15.95;43.24;99684.31;79299;1294;3013240;-64
2023/05/05 03:25:12;;;;;;;2.90;1.30;;;;;;;15.99;43.14;99685.77;78130;1298;3053310;-63
2023/05/05 03:27:39;;;;;;;3.10;1.30;;;;;;;16.01;43.82;99680.11;79302;1298;3015571;-60
2023/05/05 03:30:07;;;;;;;13.40;1.70;;;;;;;16.08;43.90;99681.00;79404;1295;3012226;-67
2023/05/05 03:32:37;;;;;;;5.70;1.30;;;;;;;16.14;43.75;99681.53;78243;1299;3049148;-62
2023/05/05 03:35:04;;;;;;;4.40;1.80;;;;;;;16.19;43.95;99684.73;79379;1298;3012972;-62
2023/05/05 03:37:32;;;;;;;2.10;1.40;;;;;;;16.24;44.00;99687.10;79434;1298;3012037;-64
2023/05/05 03:40:00;;;;;;;1.70;1.00;;;;;;;16.27;43.76;99688.67;78221;1299;3053348;-63
2023/05/05 03:42:26;;;;;;;2.00;1.10;;;;;;;16.31;43.50;99691.69;79411;1300;3013359;-63
2023/05/05 03:44:53;;;;;;;3.00;1.50;;;;;;;16.35;43.14;99695.83;79542;1306;3012900;-62
2023/05/05 03:47:23;;;;;;;7.50;1.60;;;;;;;16.35;42.96;99697.05;78257;1297;3028565;-63
2023/05/05 03:49:51;;;;;;;7.70;1.50;;;;;;;16.32;42.94;99697.09;79517;1295;3013782;-64
2023/05/05 03:52:18;;;;;;;3.40;1.40;;;;;;;16.35;42.99;99694.77;79495;1297;3012215;-64
2023/05/05 03:54:45;;;;;;;5.50;1.50;;;;;;;16.21;42.84;99696.34;78255;1295;3052334;-62
2023/05/05 03:57:12;;;;;;;4.10;1.50;;;;;;;16.14;42.86;99690.06;79435;1298;3013526;-65
2023/05/05 03:59:38;;;;;;;4.60;1.30;;;;;;;16.08;43.02;99687.34;79552;1297;3011889;-66
2023/05/05 04:02:07;;;;;;;2.70;1.60;;;;;;;16.12;43.00;99690.03;78306;1298;3028379;-64
2023/05/05 04:04:34;;;;;;;4.90;1.30;;;;;;;16.17;43.15;99691.39;79475;1300;3013857;-67
2023/05/05 04:07:01;;;;;;;6.70;1.40;;;;;;;16.17;43.01;99691.96;79405;1296;3011740;-66
2023/05/05 04:09:29;;;;;;;2.90;1.20;;;;;;;16.24;43.40;99691.38;78184;1299;3053551;-64
2023/05/05 04:11:55;;;;;;;5.60;1.70;;;;;;;16.30;43.25;99692.85;79631;1297;3012680;-64
2023/05/05 04:14:22;;;;;;;3.70;2.10;;;;;;;16.32;43.67;99687.35;79406;1296;3011722;-69
2023/05/05 04:16:51;;;;;;;4.60;1.90;;;;;;;16.35;44.60;99691.17;78165;1295;3028941;-66
2023/05/05 04:19:18;;;;;;;4.20;2.40;;;;;;;16.37;45.57;99692.23;79496;1296;3013666;-64
2023/05/05 04:21:45;;;;;;;7.20;3.00;;;;;;;16.40;46.74;99700.85;79446;1308;3013299;-62
2023/05/05 04:24:13;;;;;;;9.50;3.60;;;;;;;16.42;47.67;99695.25;78277;1301;3028639;-62
2023/05/05 04:26:40;;;;;;;7.00;3.20;;;;;;;16.49;46.98;99698.92;79716;1294;3012829;-66
2023/05/05 04:29:08;;;;;;;17.10;4.10;;;;;;;16.57;47.99;99694.70;79492;1295;3012176;-67
2023/05/05 04:31:36;;;;;;;8.50;3.40;;;;;;;16.65;48.11;99697.22;78099;1300;3048829;-66
2023/05/05 04:34:03;;;;;;;26.90;9.70;;;;;;;16.72;47.77;99694.69;77725;1297;3013772;-66
2023/05/05 04:36:29;;;;;;;14.90;5.50;;;;;;;16.82;45.90;99696.61;79541;1298;3011837;-64
2023/05/05 04:38:57;;;;;;;22.00;6.50;;;;;;;16.94;46.23;99697.20;78340;1298;3053897;-66
2023/05/05 04:41:24;;;;;;;28.00;9.00;;;;;;;17.08;44.97;99701.99;79466;1298;3013163;-64
2023/05/05 04:43:52;;;;;;;30.80;10.10;;;;;;;17.17;44.64;99700.54;79361;1295;3012994;-67
2023/05/05 04:46:20;;;;;;;30.60;9.60;;;;;;;17.22;45.08;99700.64;78281;1297;3048873;-62
2023/05/05 04:48:47;;;;;;;31.50;9.90;;;;;;;17.27;43.63;99699.91;79500;1296;3013921;-67
2023/05/05 04:51:14;;;;;;;29.90;9.30;;;;;;;17.31;43.86;99700.09;79645;1295;3011830;-64
2023/05/05 04:53:42;;;;;;;33.90;9.70;;;;;;;17.37;43.74;99700.27;78150;1299;3028293;-61
2023/05/05 04:56:08;;;;;;;30.10;8.70;;;;;;;17.45;43.84;99700.67;79454;1297;3013499;-61
2023/05/05 04:58:35;;;;;;;25.90;8.00;;;;;;;17.48;45.36;99698.65;79484;1295;3013377;-67
2023/05/05 05:01:03;;;;;;;13.90;5.30;;;;;;;17.48;48.93;99703.27;78404;1305;3028074;-64
2023/05/05 05:03:30;;;;;;;13.90;4.20;;;;;;;17.46;49.33;99704.30;79561;1306;3013596;-67
2023/05/05 05:05:57;;;;;;;16.90;3.90;;;;;;;17.46;48.42;99701.80;79426;1298;3013371;-61
2023/05/05 05:08:25;;;;;;;12.20;4.40;;;;;;;17.40;46.50;99701.81;78198;1300;3028907;-64
2023/05/05 05:10:51;;;;;;;13.10;5.00;;;;;;;17.40;46.17;99706.05;79473;1297;3013727;-66
2023/05/05 05:13:18;;;;;;;18.90;6.90;;;;;;;17.55;45.02;99700.20;79423;1298;3011554;-66
2023/05/05 05:15:46;;;;;;;23.10;8.20;;;;;;;17.69;44.92;99695.65;78175;1298;3028863;-67
2023/05/05 05:18:12;;;;;;;20.60;7.50;;;;;;;17.80;44.78;99693.27;79479;1295;3012917;-62
2023/05/05 05:20:39;;;;;;;25.60;6.40;;;;;;;17.85;44.96;99693.14;79414;1294;3011648;-66
2023/05/05 05:23:07;;;;;;;20.10;5.60;;;;;;;17.90;45.80;99692.36;78413;1297;3026099;-61
2023/05/05 05:25:36;;;;;;;16.00;4.40;;;;;;;17.87;48.37;99692.48;79620;1298;3011888;-62
2023/05/05 05:28:05;;;;;;;12.40;3.60;;;;;;;17.72;47.85;99692.17;78871;1296;3011858;-62
2023/05/05 05:30:32;;;;;;;9.10;3.80;;;;;;;17.66;47.78;99695.70;79374;1297;3018445;-63
2023/05/05 05:33:00;;;;;;;9.40;2.70;;;;;;;17.70;47.85;99695.14;79370;1295;3013294;-68
2023/05/05 05:35:28;;;;;;;10.20;3.20;;;;;;;17.73;47.63;99695.97;78222;1300;3049424;-63
2023/05/05 05:37:55;;;;;;;10.10;3.30;;;;;;;17.65;49.08;99693.48;79437;1298;3012962;-64
2023/05/05 05:40:22;;;;;;;14.70;3.40;;;;;;;17.60;50.79;99698.34;79447;1295;3013219;-63
2023/05/05 05:42:49;;;;;;;11.30;3.00;;;;;;;17.76;50.79;99692.55;78250;1300;3028409;-61
2023/05/05 05:45:16;;;;;;;9.70;3.40;;;;;;;17.88;50.12;99692.23;79640;1298;3021193;-68
2023/05/05 05:47:43;;;;;;;15.10;4.40;;;;;;;17.91;49.78;99686.80;79493;1298;3011398;-67
2023/05/05 05:50:12;;;;;;;23.20;3.60;;;;;;;17.90;48.11;99689.33;78253;1300;3026442;-69
2023/05/05 05:52:39;;;;;;;12.70;3.40;;;;;;;17.97;47.21;99686.46;79534;1298;3013122;-62
2023/05/05 05:55:07;;;;;;;11.70;3.00;;;;;;;18.13;46.95;99684.18;79452;1299;3011733;-67
2023/05/05 05:57:35;;;;;;;10.50;3.30;;;;;;;18.28;45.97;99683.77;78299;1299;3051710;-64
2023/05/05 06:00:03;;;;;;;7.40;2.40;;;;;;;18.42;43.82;99683.39;79413;1295;3012912;-63
2023/05/05 06:02:41;;;;;;;9.60;3.10;;;;;;;18.55;42.79;99681.33;78182;1295;3053582;-62
2023/05/05 06:05:11;;;;;;;13.10;3.40;;;;;;;18.59;43.30;99676.20;79469;1295;3013504;-66
2023/05/05 06:07:40;;;;;;;6.90;3.20;;;;;;;18.63;42.83;99680.63;78258;1294;3052916;-65
2023/05/05 06:10:08;;;;;;;6.40;2.90;;;;;;;18.67;41.96;99675.32;79344;1297;3013458;-63
2023/05/05 06:12:35;;;;;;;13.70;3.30;;;;;;;18.77;42.76;99677.86;79449;1295;3011691;-63
2023/05/05 06:15:04;;;;;;;15.90;4.40;;;;;;;18.82;42.69;99675.89;78274;1298;3056769;-67
2023/05/05 06:17:30;;;;;;;20.40;5.20;;;;;;;18.84;42.99;99675.46;79557;1298;3013369;-64
2023/05/05 06:19:57;;;;;;;13.70;5.20;;;;;;;18.83;43.20;99673.64;79411;1295;3011942;-65
2023/05/05 06:22:25;;;;;;;15.10;4.70;;;;;;;18.89;43.28;99673.41;78257;1296;3052616;-66
2023/05/05 06:24:52;;;;;;;16.70;4.90;;;;;;;18.99;43.15;99671.70;79488;1297;3013427;-61
2023/05/05 06:27:19;;;;;;;17.10;4.90;;;;;;;19.00;43.59;99667.83;79439;1294;3011466;-65
2023/05/05 06:29:47;;;;;;;19.50;4.90;;;;;;;19.06;43.45;99664.83;78336;1297;3055345;-65
2023/05/05 06:32:14;;;;;;;21.10;5.50;;;;;;;19.17;43.31;99668.98;79407;1295;3013191;-64
2023/05/05 06:34:43;;;;;;;15.10;4.60;;;;;;;19.25;43.44;99668.23;79408;1295;3011579;-64
2023/05/05 06:37:11;;;;;;;23.20;6.70;;;;;;;19.27;42.86;99669.26;78289;1297;3053298;-64
2023/05/05 06:39:37;;;;;;;22.20;5.40;;;;;;;19.23;42.99;99668.61;79416;1297;3013351;-63
2023/05/05 06:42:04;;;;;;;14.90;4.40;;;;;;;19.27;42.96;99666.55;79676;1294;3013253;-63
2023/05/05 06:44:35;;;;;;;18.30;4.70;;;;;;;19.33;42.77;99662.86;78437;1294;3056574;-66
2023/05/05 06:47:02;;;;;;;16.80;4.80;;;;;;;19.43;42.51;99660.47;79486;1296;3013271;-62
2023/05/05 06:49:31;;;;;;;16.80;4.20;;;;;;;19.54;42.69;99659.95;79132;1296;3012122;-64
2023/05/05 06:51:58;;;;;;;14.00;4.70;;;;;;;19.65;42.50;99660.55;79597;1297;3013046;-62
2023/05/05 06:54:24;;;;;;;12.80;5.00;;;;;;;19.66;42.55;99657.04;79791;1295;3013521;-61
2023/05/05 06:56:52;;;;;;;13.80;4.60;;;;;;;19.65;42.48;99658.56;78567;1295;3028103;-60
2023/05/05 06:59:19;;;;;;;18.90;6.00;;;;;;;19.72;42.25;99660.17;79710;1295;3013143;-64
2023/05/05 07:01:45;;;;;;;20.00;4.90;;;;;;;19.81;42.15;99658.67;79790;1295;3011742;-63
2023/05/05 07:04:14;;;;;;;14.00;4.30;;;;;;;19.90;41.92;99655.45;78758;1294;3028221;-64
2023/05/05 07:06:40;;;;;;;10.70;4.30;;;;;;;19.99;41.86;99650.70;79778;1296;3013722;-63
2023/05/05 07:09:07;;;;;;;11.40;4.90;;;;;;;20.05;41.81;99655.33;79955;1294;3011455;-67
2023/05/05 07:11:36;;;;;;;12.20;4.90;;;;;;;20.07;42.13;99655.80;78580;1295;3068198;-64
2023/05/05 07:14:03;;;;;;;14.40;4.70;;;;;;;20.04;42.35;99655.24;79689;1295;3013405;-59
2023/05/05 07:16:33;;;;;;;12.20;4.60;;;;;;;20.05;42.11;99654.92;79626;1293;3013006;-61
2023/05/05 07:19:04;;;;;;;14.70;4.20;;;;;;;20.02;42.10;99648.69;78316;1295;3053720;-62
2023/05/05 07:21:35;;;;;;;17.20;4.50;;;;;;;19.96;41.93;99642.80;79592;1294;3011732;-61
2023/05/05 07:24:03;;;;;;;15.00;4.40;;;;;;;19.96;41.85;99641.10;78339;1297;3052541;-62
2023/05/05 07:26:30;;;;;;;9.20;3.90;;;;;;;19.94;41.82;99640.38;79682;1294;3013446;-63
2023/05/05 07:28:57;;;;;;;10.90;4.30;;;;;;;19.90;41.57;99641.41;79423;1300;3012876;-62
2023/05/05 07:31:26;;;;;;;15.70;4.50;;;;;;;19.78;40.90;99636.76;78346;1294;3055941;-61
2023/05/05 07:33:53;;;;;;;9.20;4.10;;;;;;;19.68;40.90;99636.30;79384;1295;3013666;-64
2023/05/05 07:36:19;;;;;;;12.00;3.80;;;;;;;19.70;41.32;99635.33;79350;1294;3013566;-64
2023/05/05 07:38:47;;;;;;;18.80;4.90;;;;;;;19.77;41.87;99632.94;78200;1297;3028792;-61
2023/05/05 07:41:14;;;;;;;13.90;4.10;;;;;;;19.86;41.77;99628.35;79568;1297;3013642;-64
2023/05/05 07:43:41;;;;;;;8.20;3.60;;;;;;;19.95;41.52;99633.17;79522;1294;3011889;-64
2023/05/05 07:46:09;;;;;;;9.30;3.10;;;;;;;20.05;41.27;99635.05;78247;1297;3055692;-60
2023/05/05 07:48:35;;;;;;;8.80;3.00;;;;;;;20.19;40.86;99638.70;79714;1294;3012700;-62
2023/05/05 07:51:02;;;;;;;10.00;3.20;;;;;;;20.26;40.30;99637.07;79507;1295;3011520;-62
2023/05/05 07:53:30;;;;;;;12.80;3.20;;;;;;;20.34;40.05;99634.48;78203;1297;3028342;-63
2023/05/05 07:55:57;;;;;;;18.20;4.60;;;;;;;20.43;39.72;99633.11;79614;1294;3019350;-64
2023/05/05 07:58:24;;;;;;;11.80;4.30;;;;;;;20.39;39.43;99629.58;79435;1294;3011565;-62
2023/05/05 08:00:52;;;;;;;12.70;3.50;;;;;;;20.50;39.51;99626.69;78465;1297;3025792;-59
2023/05/05 08:03:22;;;;;;;17.80;4.70;;;;;;;20.66;39.53;99623.20;79687;1294;3019150;-62
2023/05/05 08:05:52;;;;;;;22.00;5.10;;;;;;;20.71;39.08;99622.15;78276;1297;3050498;-63
2023/05/05 08:08:23;;;;;;;17.90;4.40;;;;;;;20.77;39.12;99620.64;79627;1297;3012972;-63
2023/05/05 08:10:51;;;;;;;14.70;4.40;;;;;;;20.86;38.84;99615.33;78693;1294;3052493;-59
2023/05/05 08:13:18;;;;;;;13.70;4.00;;;;;;;20.93;37.99;99618.67;79433;1300;3013550;-62
2023/05/05 08:15:45;;;;;;;16.30;3.50;;;;;;;20.98;37.53;99616.17;79343;1295;3011627;-63
2023/05/05 08:18:13;;;;;;;20.40;4.50;;;;;;;21.08;37.88;99611.23;78173;1297;3049500;-62
2023/05/05 08:20:39;;;;;;;14.30;3.50;;;;;;;21.10;37.82;99611.63;79414;1295;3019318;-60
2023/05/05 08:23:06;;;;;;;14.20;3.90;;;;;;;21.12;37.60;99607.48;79436;1297;3013316;-61
2023/05/05 08:25:34;;;;;;;12.60;3.60;;;;;;;21.16;37.67;99608.87;78152;1297;3026930;-63
2023/05/05 08:28:00;;;;;;;13.40;3.80;;;;;;;21.28;37.73;99603.55;79411;1297;3013365;-64
2023/05/05 08:30:27;;;;;;;12.60;4.40;;;;;;;21.39;37.67;99605.42;79359;1297;3012209;-61
2023/05/05 08:32:55;;;;;;;17.90;4.00;;;;;;;21.47;37.28;99604.41;78307;1294;3028861;-59
2023/05/05 08:35:22;;;;;;;8.50;2.80;;;;;;;21.24;36.28;99600.40;79621;1295;3013690;-62
2023/05/05 08:37:50;;;;;;;9.20;3.10;;;;;;;21.26;36.64;99601.47;79614;1294;3011884;-61
2023/05/05 08:40:19;;;;;;;16.00;2.90;;;;;;;21.19;36.55;99602.45;78477;1297;3052764;-63
2023/05/05 08:42:46;;;;;;;9.30;2.90;;;;;;;21.17;36.50;99599.10;79647;1293;3013837;-62
2023/05/05 08:45:12;;;;;;;7.00;2.80;;;;;;;21.24;36.74;99593.59;79682;1297;3011662;-60
2023/05/05 08:47:41;;;;;;;6.20;2.40;;;;;;;21.38;36.90;99593.89;78103;1299;3048996;-59
2023/05/05 08:50:10;;;;;;;5.90;2.50;;;;;;;21.58;36.96;99589.91;79578;1294;3013153;-60
2023/05/05 08:52:42;;;;;;;7.40;2.00;;;;;;;21.65;36.26;99587.27;78977;1297;3012798;-61
2023/05/05 08:55:17;;;;;;;9.40;2.80;;;;;;;21.52;36.00;99588.09;79481;1295;3011551;-57
2023/05/05 08:57:50;;;;;;;5.30;2.30;;;;;;;21.52;35.96;99582.34;78127;1300;3052184;-59
2023/05/05 09:00:18;;;;;;;9.90;2.20;;;;;;;21.67;35.80;99576.70;79575;1294;3011879;-62
2023/05/05 09:02:47;;;;;;;8.20;3.00;;;;;;;21.87;36.06;99572.53;78343;1297;3051946;-60
2023/05/05 09:05:14;;;;;;;6.70;2.70;;;;;;;21.97;36.26;99571.58;79355;1293;3013127;-62
2023/05/05 09:07:42;;;;;;;3.80;2.40;;;;;;;22.19;35.70;99570.17;79506;1297;3011475;-62
2023/05/05 09:10:10;;;;;;;7.40;2.80;;;;;;;22.21;35.41;99569.38;78106;1298;3052050;-60
2023/05/05 09:12:41;;;;;;;6.80;2.10;;;;;;;22.29;34.89;99569.20;79585;1297;3013142;-59
2023/05/05 09:15:10;;;;;;;9.90;2.50;;;;;;;22.44;35.13;99569.27;78304;1294;3068144;-62
2023/05/05 09:17:37;;;;;;;7.70;2.80;;;;;;;22.52;35.02;99569.98;79561;1293;3012969;-64
2023/05/05 09:20:10;;;;;;;5.00;2.40;;;;;;;22.62;34.96;99567.84;78978;1294;3011539;-62
2023/05/05 09:22:41;;;;;;;;;;;;;;;22.68;34.58;99571.06;79468;1297;3011450;-64
2023/05/05 09:25:13;;;;;;;9.90;2.90;;;;;;;22.70;34.58;99569.63;78365;1297;3053457;-59
2023/05/05 09:27:48;;;;;;;9.20;2.90;;;;;;;22.70;34.56;99566.92;79502;1294;3011954;-59
2023/05/05 09:30:22;;;;;;;11.80;3.10;;;;;;;22.80;34.37;99568.23;78261;1297;3053458;-64
2023/05/05 09:32:50;;;;;;;6.90;2.30;;;;;;;22.92;33.86;99567.71;81057;1297;3011617;-61
2023/05/05 09:35:18;;;;;;;6.50;2.50;;;;;;;23.16;33.59;99563.48;78314;1297;3068421;-60
2023/05/05 09:37:45;;;;;;;7.70;2.40;;;;;;;23.26;33.06;99559.84;79458;1294;3013333;-58
2023/05/05 09:40:12;;;;;;;4.90;2.30;;;;;;;23.37;32.92;99558.13;79561;1295;3011575;-61
2023/05/05 09:42:41;;;;;;;7.10;2.30;;;;;;;23.50;32.59;99559.00;80804;1293;3053922;-62
2023/05/05 09:45:17;;;;;;;8.40;1.90;;;;;;;23.52;31.86;99553.80;82136;1294;3012272;-62
2023/05/05 09:47:45;;;;;;;7.60;1.60;;;;;;;23.66;30.92;99549.47;80851;1294;3044164;-62
2023/05/05 09:50:14;;;;;;;4.10;1.90;;;;;;;23.69;30.02;99548.05;82110;1294;3012859;-60
2023/05/05 09:52:41;;;;;;;3.50;1.90;;;;;;;23.72;29.57;99549.14;82059;1294;3011395;-60
2023/05/05 09:55:16;;;;;;;6.20;1.60;;;;;;;23.79;30.11;99548.15;80804;1293;3039911;-62
2023/05/05 09:57:46;;;;;;;3.00;1.70;;;;;;;23.93;30.24;99547.90;81546;1294;3011139;-66
2023/05/05 10:00:13;;;;;;;7.20;1.90;;;;;;;24.06;30.92;99549.27;82112;1294;3012700;-64
2023/05/05 10:02:40;;;;;;;4.00;1.80;;;;;;;24.12;30.84;99549.54;82151;1293;3012873;-61
2023/05/05 10:05:12;;;;;;;5.90;1.90;;;;;;;24.05;31.11;99546.23;80909;1293;3043582;-61
2023/05/05 10:07:40;;;;;;;;;;;;;;;24.04;31.22;99546.27;82116;1293;3011146;-62
2023/05/05 10:10:18;;;;;;;3.50;1.60;;;;;;;24.06;31.43;99543.08;80853;1293;3042093;-62
2023/05/05 10:12:46;;;;;;;4.00;1.50;;;;;;;24.06;31.64;99542.78;80860;1294;3048756;-61
2023/05/05 10:15:14;;;;;;;4.30;1.80;;;;;;;24.19;31.14;99541.81;82166;1294;3012407;-61
2023/05/05 10:17:47;;;;;;;4.50;1.60;;;;;;;24.32;30.69;99535.42;82092;1294;3012786;-62
2023/05/05 10:20:15;;;;;;;5.10;1.60;;;;;;;24.48;30.36;99534.68;80860;1293;3044500;-62
2023/05/05 10:22:52;;;;;;;4.70;1.40;;;;;;;24.70;30.14;99535.81;81948;1297;3013151;-62
2023/05/05 10:25:25;;;;;;;4.40;1.70;;;;;;;24.85;29.34;99531.40;80870;1294;3042628;-62
2023/05/05 10:27:52;;;;;;;;;;;;;;;24.77;28.97;99529.67;82056;1294;3012763;-61
2023/05/05 10:30:25;;;;;;;3.40;1.50;;;;;;;24.61;29.35;99526.85;80831;1294;3039953;-64
2023/05/05 10:33:12;;;;;;;2.60;1.40;;;;;;;24.55;29.33;99522.49;82031;1294;3012701;-62
2023/05/05 10:35:41;;;;;;;2.80;1.10;;;;;;;24.61;29.51;99520.54;80773;1295;3041305;-63
2023/05/05 10:38:08;;;;;;;7.90;1.80;;;;;;;24.62;29.35;99527.05;82065;1294;3012771;-61
2023/05/05 10:40:35;;;;;;;4.70;1.80;;;;;;;24.49;29.59;99527.73;82107;1294;3012726;-61
2023/05/05 10:43:03;;;;;;;4.90;1.40;;;;;;;24.36;29.72;99522.94;80901;1293;3042026;-64
2023/05/05 10:45:29;;;;;;;3.90;1.40;;;;;;;24.42;29.12;99524.19;82065;1295;3012687;-63
2023/05/05 10:47:56;;;;;;;5.30;1.50;;;;;;;24.51;28.81;99517.84;82094;1294;3013320;-61
2023/05/05 10:50:53;;;;;;;2.20;1.40;;;;;;;24.60;28.81;99515.48;80724;1295;3017946;-64
2023/05/05 10:53:27;;;;;;;2.40;1.50;;;;;;;24.65;28.48;99511.02;80858;1294;3044454;-62
2023/05/05 10:56:00;;;;;;;3.10;1.50;;;;;;;24.84;28.38;99508.51;82023;1296;3012694;-62
2023/05/05 10:58:32;;;;;;;3.50;1.20;;;;;;;24.87;28.16;99504.95;80827;1293;3060033;-61
2023/05/05 11:00:59;;;;;;;4.00;1.40;;;;;;;24.81;28.37;99505.00;82131;1294;3013019;-62
2023/05/05 11:03:26;;;;;;;4.70;1.70;;;;;;;24.60;28.36;99510.98;80833;1295;3018044;-63
2023/05/05 11:06:02;;;;;;;5.50;1.50;;;;;;;24.50;28.14;99513.48;82158;1294;3012322;-62
2023/05/05 11:08:37;;;;;;;2.90;1.60;;;;;;;24.35;28.35;99510.16;80860;1294;3040688;-63
2023/05/05 11:11:06;;;;;;;5.70;2.00;;;;;;;24.38;28.70;99508.47;81587;1293;3011880;-63
2023/05/05 11:13:34;;;;;;;3.00;1.40;;;;;;;24.15;28.92;99506.51;82132;1294;3011500;-62
2023/05/05 11:16:04;;;;;;;4.90;1.10;;;;;;;23.89;29.44;99502.68;82127;1297;3013214;-63
2023/05/05 11:18:39;;;;;;;2.30;1.20;;;;;;;24.02;29.59;99502.61;80842;1293;3042801;-61
2023/05/05 11:21:15;;;;;;;8.10;1.50;;;;;;;23.99;29.65;99500.97;81569;1293;3011091;-62
2023/05/05 11:23:44;;;;;;;2.90;0.90;;;;;;;23.97;29.84;99500.52;81590;1294;3011052;-61